sensor_id;sensor_type;location;lat;lon;timestamp;P1;durP1;ratioP1;P2;durP2;ratioP2
15340;SDS011;7770;52.158;5.372;2023-04-16T00:00:44;14.70;;;6.40;;
15340;SDS011;7770;52.158;5.372;2023-04-16T00:03:30;12.97;;;6.13;;
15340;SDS011;7770;52.158;5.372;2023-04-16T00:06:16;14.77;;;6.27;;
15340;SDS011;7770;52.158;5.372;2023-04-16T00:09:03;13.57;;;6.37;;
15340;SDS011;7770;52.158;5.372;2023-04-16T00:11:49;10.43;;;6.20;;
15340;SDS011;7770;52.158;5.372;2023-04-16T00:14:35;14.10;;;6.53;;
15340;SDS011;7770;52.158;5.372;2023-04-16T00:17:21;11.90;;;6.10;;
15340;SDS011;7770;52.158;5.372;2023-04-16T00:20:07;8.80;;;5.47;;
15340;SDS011;7770;52.158;5.372;2023-04-16T00:22:54;12.83;;;5.63;;
15340;SDS011;7770;52.158;5.372;2023-04-16T00:25:40;9.30;;;5.30;;
15340;SDS011;7770;52.158;5.372;2023-04-16T00:28:27;9.50;;;5.70;;
15340;SDS011;7770;52.158;5.372;2023-04-16T00:31:13;13.20;;;5.73;;
15340;SDS011;7770;52.158;5.372;2023-04-16T00:33:59;11.80;;;6.80;;
15340;SDS011;7770;52.158;5.372;2023-04-16T00:36:45;10.47;;;5.87;;
15340;SDS011;7770;52.158;5.372;2023-04-16T00:39:31;10.63;;;7.07;;
15340;SDS011;7770;52.158;5.372;2023-04-16T00:42:17;12.20;;;6.53;;
15340;SDS011;7770;52.158;5.372;2023-04-16T00:45:03;14.37;;;7.20;;
15340;SDS011;7770;52.158;5.372;2023-04-16T00:47:50;16.23;;;6.57;;
15340;SDS011;7770;52.158;5.372;2023-04-16T00:50:36;16.13;;;7.00;;
15340;SDS011;7770;52.158;5.372;2023-04-16T00:53:22;16.87;;;8.07;;
15340;SDS011;7770;52.158;5.372;2023-04-16T00:56:09;14.40;;;8.07;;
15340;SDS011;7770;52.158;5.372;2023-04-16T00:58:56;16.43;;;7.73;;
15340;SDS011;7770;52.158;5.372;2023-04-16T01:01:43;13.27;;;7.80;;
15340;SDS011;7770;52.158;5.372;2023-04-16T01:04:29;14.07;;;7.43;;
15340;SDS011;7770;52.158;5.372;2023-04-16T01:07:15;16.33;;;7.57;;
15340;SDS011;7770;52.158;5.372;2023-04-16T01:10:02;12.63;;;7.30;;
15340;SDS011;7770;52.158;5.372;2023-04-16T01:12:48;14.97;;;7.17;;
15340;SDS011;7770;52.158;5.372;2023-04-16T01:15:34;15.40;;;7.43;;
15340;SDS011;7770;52.158;5.372;2023-04-16T01:18:21;13.30;;;7.73;;
15340;SDS011;7770;52.158;5.372;2023-04-16T01:21:08;18.77;;;8.43;;
15340;SDS011;7770;52.158;5.372;2023-04-16T01:23:54;10.40;;;7.27;;
15340;SDS011;7770;52.158;5.372;2023-04-16T01:26:40;14.67;;;7.80;;
15340;SDS011;7770;52.158;5.372;2023-04-16T01:29:26;12.97;;;7.50;;
15340;SDS011;7770;52.158;5.372;2023-04-16T01:32:12;12.53;;;7.60;;
15340;SDS011;7770;52.158;5.372;2023-04-16T01:34:58;13.43;;;8.27;;
15340;SDS011;7770;52.158;5.372;2023-04-16T01:37:44;18.30;;;8.90;;
15340;SDS011;7770;52.158;5.372;2023-04-16T01:40:30;16.57;;;8.70;;
15340;SDS011;7770;52.158;5.372;2023-04-16T01:43:16;13.80;;;8.93;;
15340;SDS011;7770;52.158;5.372;2023-04-16T01:46:19;15.87;;;9.17;;
15340;SDS011;7770;52.158;5.372;2023-04-16T01:49:13;14.87;;;9.77;;
15340;SDS011;7770;52.158;5.372;2023-04-16T01:52:00;14.13;;;9.53;;
15340;SDS011;7770;52.158;5.372;2023-04-16T01:54:46;14.50;;;10.67;;
15340;SDS011;7770;52.158;5.372;2023-04-16T01:57:32;17.13;;;10.57;;
15340;SDS011;7770;52.158;5.372;2023-04-16T02:00:18;15.17;;;11.13;;
15340;SDS011;7770;52.158;5.372;2023-04-16T02:03:04;19.23;;;11.97;;
15340;SDS011;7770;52.158;5.372;2023-04-16T02:05:50;22.93;;;13.40;;
15340;SDS011;7770;52.158;5.372;2023-04-16T02:08:36;18.83;;;13.40;;
15340;SDS011;7770;52.158;5.372;2023-04-16T02:11:22;21.73;;;13.37;;
15340;SDS011;7770;52.158;5.372;2023-04-16T02:14:08;17.93;;;12.77;;
15340;SDS011;7770;52.158;5.372;2023-04-16T02:16:54;22.13;;;12.97;;
15340;SDS011;7770;52.158;5.372;2023-04-16T02:19:40;22.73;;;13.50;;
15340;SDS011;7770;52.158;5.372;2023-04-16T02:22:26;20.27;;;12.63;;
15340;SDS011;7770;52.158;5.372;2023-04-16T02:25:12;21.87;;;13.73;;
15340;SDS011;7770;52.158;5.372;2023-04-16T02:27:58;24.10;;;13.83;;
15340;SDS011;7770;52.158;5.372;2023-04-16T02:30:44;23.60;;;13.50;;
15340;SDS011;7770;52.158;5.372;2023-04-16T02:33:30;19.93;;;13.77;;
15340;SDS011;7770;52.158;5.372;2023-04-16T02:36:16;21.40;;;13.53;;
15340;SDS011;7770;52.158;5.372;2023-04-16T02:39:02;31.43;;;14.83;;
15340;SDS011;7770;52.158;5.372;2023-04-16T02:41:48;24.43;;;15.00;;
15340;SDS011;7770;52.158;5.372;2023-04-16T02:44:35;25.10;;;15.80;;
15340;SDS011;7770;52.158;5.372;2023-04-16T02:47:21;23.77;;;15.57;;
15340;SDS011;7770;52.158;5.372;2023-04-16T02:50:07;30.20;;;15.57;;
15340;SDS011;7770;52.158;5.372;2023-04-16T02:52:53;28.30;;;15.57;;
15340;SDS011;7770;52.158;5.372;2023-04-16T02:55:39;32.03;;;16.90;;
15340;SDS011;7770;52.158;5.372;2023-04-16T02:58:25;28.13;;;17.10;;
15340;SDS011;7770;52.158;5.372;2023-04-16T03:01:11;27.63;;;16.53;;
15340;SDS011;7770;52.158;5.372;2023-04-16T03:03:57;26.20;;;16.90;;
15340;SDS011;7770;52.158;5.372;2023-04-16T03:06:44;31.60;;;17.17;;
15340;SDS011;7770;52.158;5.372;2023-04-16T03:09:30;29.33;;;17.70;;
15340;SDS011;7770;52.158;5.372;2023-04-16T03:12:16;27.73;;;17.43;;
15340;SDS011;7770;52.158;5.372;2023-04-16T03:15:02;30.07;;;17.43;;
15340;SDS011;7770;52.158;5.372;2023-04-16T03:17:48;23.80;;;16.70;;
15340;SDS011;7770;52.158;5.372;2023-04-16T03:20:34;29.40;;;16.67;;
15340;SDS011;7770;52.158;5.372;2023-04-16T03:23:20;24.30;;;16.43;;
15340;SDS011;7770;52.158;5.372;2023-04-16T03:26:06;25.13;;;15.37;;
15340;SDS011;7770;52.158;5.372;2023-04-16T03:28:52;31.43;;;16.37;;
15340;SDS011;7770;52.158;5.372;2023-04-16T03:31:38;25.40;;;16.07;;
15340;SDS011;7770;52.158;5.372;2023-04-16T03:34:25;25.70;;;15.37;;
15340;SDS011;7770;52.158;5.372;2023-04-16T03:37:11;24.80;;;14.90;;
15340;SDS011;7770;52.158;5.372;2023-04-16T03:39:57;26.83;;;14.63;;
15340;SDS011;7770;52.158;5.372;2023-04-16T03:42:43;25.57;;;15.73;;
15340;SDS011;7770;52.158;5.372;2023-04-16T03:45:30;23.50;;;15.40;;
15340;SDS011;7770;52.158;5.372;2023-04-16T03:48:16;25.93;;;15.87;;
15340;SDS011;7770;52.158;5.372;2023-04-16T03:51:02;22.97;;;15.97;;
15340;SDS011;7770;52.158;5.372;2023-04-16T03:53:48;31.40;;;16.90;;
15340;SDS011;7770;52.158;5.372;2023-04-16T03:56:34;32.73;;;17.57;;
15340;SDS011;7770;52.158;5.372;2023-04-16T03:59:20;25.43;;;16.63;;
15340;SDS011;7770;52.158;5.372;2023-04-16T04:02:06;27.70;;;17.40;;
15340;SDS011;7770;52.158;5.372;2023-04-16T04:04:52;31.43;;;18.40;;
15340;SDS011;7770;52.158;5.372;2023-04-16T04:07:38;29.67;;;17.33;;
15340;SDS011;7770;52.158;5.372;2023-04-16T04:10:24;27.73;;;17.37;;
15340;SDS011;7770;52.158;5.372;2023-04-16T04:13:10;31.80;;;17.63;;
15340;SDS011;7770;52.158;5.372;2023-04-16T04:15:56;32.20;;;17.80;;
15340;SDS011;7770;52.158;5.372;2023-04-16T04:18:42;28.13;;;17.33;;
15340;SDS011;7770;52.158;5.372;2023-04-16T04:21:28;26.83;;;17.37;;
15340;SDS011;7770;52.158;5.372;2023-04-16T04:24:15;26.73;;;16.90;;
15340;SDS011;7770;52.158;5.372;2023-04-16T04:27:01;32.80;;;17.80;;
15340;SDS011;7770;52.158;5.372;2023-04-16T04:29:47;36.40;;;18.07;;
15340;SDS011;7770;52.158;5.372;2023-04-16T04:32:33;28.77;;;16.37;;
15340;SDS011;7770;52.158;5.372;2023-04-16T04:35:20;26.57;;;16.00;;
15340;SDS011;7770;52.158;5.372;2023-04-16T04:38:06;29.03;;;17.20;;
15340;SDS011;7770;52.158;5.372;2023-04-16T04:40:52;33.80;;;17.27;;
15340;SDS011;7770;52.158;5.372;2023-04-16T04:43:38;29.43;;;16.90;;
15340;SDS011;7770;52.158;5.372;2023-04-16T04:46:24;28.13;;;17.23;;
15340;SDS011;7770;52.158;5.372;2023-04-16T04:49:10;28.97;;;16.87;;
15340;SDS011;7770;52.158;5.372;2023-04-16T04:51:56;32.93;;;17.87;;
15340;SDS011;7770;52.158;5.372;2023-04-16T04:54:42;31.20;;;17.97;;
15340;SDS011;7770;52.158;5.372;2023-04-16T04:57:28;29.43;;;17.67;;
15340;SDS011;7770;52.158;5.372;2023-04-16T05:00:14;28.40;;;18.97;;
15340;SDS011;7770;52.158;5.372;2023-04-16T05:03:01;33.13;;;18.30;;
15340;SDS011;7770;52.158;5.372;2023-04-16T05:05:48;29.80;;;16.80;;
15340;SDS011;7770;52.158;5.372;2023-04-16T05:08:34;30.83;;;18.00;;
15340;SDS011;7770;52.158;5.372;2023-04-16T05:11:20;28.03;;;16.80;;
15340;SDS011;7770;52.158;5.372;2023-04-16T05:14:06;32.87;;;17.67;;
15340;SDS011;7770;52.158;5.372;2023-04-16T05:16:53;28.50;;;17.23;;
15340;SDS011;7770;52.158;5.372;2023-04-16T05:19:39;29.43;;;18.23;;
15340;SDS011;7770;52.158;5.372;2023-04-16T05:22:26;31.53;;;18.80;;
15340;SDS011;7770;52.158;5.372;2023-04-16T05:25:12;33.20;;;19.00;;
15340;SDS011;7770;52.158;5.372;2023-04-16T05:27:58;30.37;;;18.67;;
15340;SDS011;7770;52.158;5.372;2023-04-16T05:30:44;34.73;;;18.90;;
15340;SDS011;7770;52.158;5.372;2023-04-16T05:33:30;29.13;;;19.20;;
15340;SDS011;7770;52.158;5.372;2023-04-16T05:36:16;34.10;;;19.47;;
15340;SDS011;7770;52.158;5.372;2023-04-16T05:39:02;36.53;;;19.50;;
15340;SDS011;7770;52.158;5.372;2023-04-16T05:41:48;38.23;;;19.33;;
15340;SDS011;7770;52.158;5.372;2023-04-16T05:44:34;29.03;;;18.57;;
15340;SDS011;7770;52.158;5.372;2023-04-16T05:47:20;35.87;;;17.90;;
15340;SDS011;7770;52.158;5.372;2023-04-16T05:50:06;31.90;;;18.20;;
15340;SDS011;7770;52.158;5.372;2023-04-16T05:52:53;27.97;;;18.67;;
15340;SDS011;7770;52.158;5.372;2023-04-16T05:55:39;30.97;;;18.53;;
15340;SDS011;7770;52.158;5.372;2023-04-16T05:58:25;32.43;;;18.10;;
15340;SDS011;7770;52.158;5.372;2023-04-16T06:01:11;33.97;;;18.47;;
15340;SDS011;7770;52.158;5.372;2023-04-16T06:03:57;33.87;;;18.70;;
15340;SDS011;7770;52.158;5.372;2023-04-16T06:06:43;36.57;;;18.73;;
15340;SDS011;7770;52.158;5.372;2023-04-16T06:09:29;34.50;;;19.73;;
15340;SDS011;7770;52.158;5.372;2023-04-16T06:12:15;31.67;;;20.07;;
15340;SDS011;7770;52.158;5.372;2023-04-16T06:15:01;32.60;;;19.73;;
15340;SDS011;7770;52.158;5.372;2023-04-16T06:17:48;36.23;;;19.90;;
15340;SDS011;7770;52.158;5.372;2023-04-16T06:20:35;32.60;;;20.87;;
15340;SDS011;7770;52.158;5.372;2023-04-16T06:23:21;39.87;;;21.57;;
15340;SDS011;7770;52.158;5.372;2023-04-16T06:26:07;35.50;;;20.50;;
15340;SDS011;7770;52.158;5.372;2023-04-16T06:28:53;35.07;;;20.80;;
15340;SDS011;7770;52.158;5.372;2023-04-16T06:31:39;33.50;;;21.23;;
15340;SDS011;7770;52.158;5.372;2023-04-16T06:34:25;33.23;;;20.93;;
15340;SDS011;7770;52.158;5.372;2023-04-16T06:37:12;32.50;;;20.17;;
15340;SDS011;7770;52.158;5.372;2023-04-16T06:39:59;34.53;;;21.27;;
15340;SDS011;7770;52.158;5.372;2023-04-16T06:42:45;40.17;;;21.10;;
15340;SDS011;7770;52.158;5.372;2023-04-16T06:45:31;32.00;;;20.03;;
15340;SDS011;7770;52.158;5.372;2023-04-16T06:48:17;32.40;;;19.40;;
15340;SDS011;7770;52.158;5.372;2023-04-16T06:51:03;34.13;;;20.23;;
15340;SDS011;7770;52.158;5.372;2023-04-16T06:53:49;36.40;;;20.60;;
15340;SDS011;7770;52.158;5.372;2023-04-16T06:56:35;37.07;;;22.23;;
15340;SDS011;7770;52.158;5.372;2023-04-16T06:59:21;35.00;;;22.63;;
15340;SDS011;7770;52.158;5.372;2023-04-16T07:02:08;37.63;;;24.07;;
15340;SDS011;7770;52.158;5.372;2023-04-16T07:04:55;35.73;;;24.00;;
15340;SDS011;7770;52.158;5.372;2023-04-16T07:07:41;37.77;;;24.13;;
15340;SDS011;7770;52.158;5.372;2023-04-16T07:10:27;35.27;;;24.20;;
15340;SDS011;7770;52.158;5.372;2023-04-16T07:13:13;37.03;;;23.50;;
15340;SDS011;7770;52.158;5.372;2023-04-16T07:15:59;35.53;;;23.93;;
15340;SDS011;7770;52.158;5.372;2023-04-16T07:18:45;37.03;;;24.43;;
15340;SDS011;7770;52.158;5.372;2023-04-16T07:21:31;28.77;;;22.03;;
15340;SDS011;7770;52.158;5.372;2023-04-16T07:24:17;29.97;;;21.70;;
15340;SDS011;7770;52.158;5.372;2023-04-16T07:27:03;32.37;;;21.10;;
15340;SDS011;7770;52.158;5.372;2023-04-16T07:29:49;29.40;;;19.23;;
15340;SDS011;7770;52.158;5.372;2023-04-16T07:32:35;29.17;;;19.40;;
15340;SDS011;7770;52.158;5.372;2023-04-16T07:35:21;27.37;;;18.83;;
15340;SDS011;7770;52.158;5.372;2023-04-16T07:38:07;27.17;;;18.33;;
15340;SDS011;7770;52.158;5.372;2023-04-16T07:40:53;29.03;;;18.67;;
15340;SDS011;7770;52.158;5.372;2023-04-16T07:43:40;23.73;;;18.27;;
15340;SDS011;7770;52.158;5.372;2023-04-16T07:46:26;25.83;;;18.10;;
15340;SDS011;7770;52.158;5.372;2023-04-16T07:49:12;24.33;;;16.43;;
15340;SDS011;7770;52.158;5.372;2023-04-16T07:51:58;23.23;;;16.50;;
15340;SDS011;7770;52.158;5.372;2023-04-16T07:54:45;23.50;;;15.77;;
15340;SDS011;7770;52.158;5.372;2023-04-16T07:57:31;22.67;;;15.37;;
15340;SDS011;7770;52.158;5.372;2023-04-16T08:00:17;24.30;;;15.47;;
15340;SDS011;7770;52.158;5.372;2023-04-16T08:03:03;19.63;;;14.70;;
15340;SDS011;7770;52.158;5.372;2023-04-16T08:05:49;19.17;;;14.33;;
15340;SDS011;7770;52.158;5.372;2023-04-16T08:08:35;18.40;;;14.07;;
15340;SDS011;7770;52.158;5.372;2023-04-16T08:11:22;19.37;;;14.30;;
15340;SDS011;7770;52.158;5.372;2023-04-16T08:14:08;18.27;;;14.60;;
15340;SDS011;7770;52.158;5.372;2023-04-16T08:16:54;19.90;;;14.30;;
15340;SDS011;7770;52.158;5.372;2023-04-16T08:19:41;17.27;;;13.87;;
15340;SDS011;7770;52.158;5.372;2023-04-16T08:22:29;18.73;;;14.27;;
15340;SDS011;7770;52.158;5.372;2023-04-16T08:25:15;20.87;;;16.40;;
15340;SDS011;7770;52.158;5.372;2023-04-16T08:28:01;16.13;;;13.67;;
15340;SDS011;7770;52.158;5.372;2023-04-16T08:30:47;16.50;;;13.13;;
15340;SDS011;7770;52.158;5.372;2023-04-16T08:33:33;15.30;;;12.87;;
15340;SDS011;7770;52.158;5.372;2023-04-16T08:36:19;16.70;;;12.50;;
15340;SDS011;7770;52.158;5.372;2023-04-16T08:39:05;18.10;;;12.40;;
15340;SDS011;7770;52.158;5.372;2023-04-16T08:41:51;17.43;;;12.53;;
15340;SDS011;7770;52.158;5.372;2023-04-16T08:44:41;16.97;;;12.43;;
15340;SDS011;7770;52.158;5.372;2023-04-16T08:47:33;13.63;;;10.87;;
15340;SDS011;7770;52.158;5.372;2023-04-16T08:50:23;12.77;;;11.33;;
15340;SDS011;7770;52.158;5.372;2023-04-16T08:53:10;13.50;;;11.30;;
15340;SDS011;7770;52.158;5.372;2023-04-16T08:56:03;14.33;;;11.27;;
15340;SDS011;7770;52.158;5.372;2023-04-16T08:58:54;11.87;;;10.40;;
15340;SDS011;7770;52.158;5.372;2023-04-16T09:01:40;11.57;;;10.03;;
15340;SDS011;7770;52.158;5.372;2023-04-16T09:04:27;13.87;;;10.27;;
15340;SDS011;7770;52.158;5.372;2023-04-16T09:07:13;12.10;;;9.83;;
15340;SDS011;7770;52.158;5.372;2023-04-16T09:10:01;13.50;;;10.43;;
15340;SDS011;7770;52.158;5.372;2023-04-16T09:12:48;12.67;;;10.40;;
15340;SDS011;7770;52.158;5.372;2023-04-16T09:15:34;13.23;;;10.33;;
15340;SDS011;7770;52.158;5.372;2023-04-16T09:18:20;12.63;;;10.00;;
15340;SDS011;7770;52.158;5.372;2023-04-16T09:21:08;13.13;;;10.20;;
15340;SDS011;7770;52.158;5.372;2023-04-16T09:23:58;13.37;;;9.43;;
15340;SDS011;7770;52.158;5.372;2023-04-16T09:26:45;10.50;;;9.40;;
15340;SDS011;7770;52.158;5.372;2023-04-16T09:29:35;11.73;;;8.90;;
15340;SDS011;7770;52.158;5.372;2023-04-16T09:32:27;11.87;;;9.80;;
15340;SDS011;7770;52.158;5.372;2023-04-16T09:35:13;12.70;;;9.37;;
15340;SDS011;7770;52.158;5.372;2023-04-16T09:38:00;12.20;;;10.20;;
15340;SDS011;7770;52.158;5.372;2023-04-16T09:40:46;12.53;;;10.67;;
15340;SDS011;7770;52.158;5.372;2023-04-16T09:43:32;12.20;;;9.77;;
15340;SDS011;7770;52.158;5.372;2023-04-16T09:46:18;13.47;;;10.23;;
15340;SDS011;7770;52.158;5.372;2023-04-16T09:49:04;11.80;;;10.17;;
15340;SDS011;7770;52.158;5.372;2023-04-16T09:51:54;11.20;;;9.97;;
15340;SDS011;7770;52.158;5.372;2023-04-16T09:54:51;15.00;;;10.33;;
15340;SDS011;7770;52.158;5.372;2023-04-16T09:57:38;11.47;;;10.07;;
15340;SDS011;7770;52.158;5.372;2023-04-16T10:00:24;13.60;;;10.43;;
15340;SDS011;7770;52.158;5.372;2023-04-16T10:03:10;12.20;;;10.30;;
15340;SDS011;7770;52.158;5.372;2023-04-16T10:06:15;12.23;;;10.33;;
15340;SDS011;7770;52.158;5.372;2023-04-16T10:09:05;13.67;;;10.97;;
15340;SDS011;7770;52.158;5.372;2023-04-16T10:11:53;14.43;;;11.10;;
15340;SDS011;7770;52.158;5.372;2023-04-16T10:14:39;17.43;;;12.17;;
15340;SDS011;7770;52.158;5.372;2023-04-16T10:17:26;15.90;;;12.63;;
15340;SDS011;7770;52.158;5.372;2023-04-16T10:20:14;16.87;;;13.20;;
15340;SDS011;7770;52.158;5.372;2023-04-16T10:23:02;20.03;;;12.80;;
15340;SDS011;7770;52.158;5.372;2023-04-16T10:25:49;16.60;;;12.57;;
15340;SDS011;7770;52.158;5.372;2023-04-16T10:28:35;17.93;;;12.90;;
15340;SDS011;7770;52.158;5.372;2023-04-16T10:31:21;18.53;;;12.93;;
15340;SDS011;7770;52.158;5.372;2023-04-16T10:34:08;17.33;;;13.77;;
15340;SDS011;7770;52.158;5.372;2023-04-16T10:36:55;17.23;;;13.97;;
15340;SDS011;7770;52.158;5.372;2023-04-16T10:39:41;23.63;;;14.97;;
15340;SDS011;7770;52.158;5.372;2023-04-16T10:42:27;22.27;;;15.67;;
15340;SDS011;7770;52.158;5.372;2023-04-16T10:45:13;22.13;;;17.17;;
15340;SDS011;7770;52.158;5.372;2023-04-16T10:48:03;24.33;;;17.40;;
15340;SDS011;7770;52.158;5.372;2023-04-16T10:50:55;27.10;;;17.57;;
15340;SDS011;7770;52.158;5.372;2023-04-16T10:53:42;29.70;;;18.70;;
15340;SDS011;7770;52.158;5.372;2023-04-16T10:56:30;26.40;;;18.00;;
15340;SDS011;7770;52.158;5.372;2023-04-16T10:59:18;26.60;;;16.83;;
15340;SDS011;7770;52.158;5.372;2023-04-16T11:02:07;24.27;;;16.57;;
15340;SDS011;7770;52.158;5.372;2023-04-16T11:04:58;23.53;;;16.03;;
15340;SDS011;7770;52.158;5.372;2023-04-16T11:07:46;24.90;;;16.67;;
15340;SDS011;7770;52.158;5.372;2023-04-16T11:10:37;24.93;;;16.47;;
15340;SDS011;7770;52.158;5.372;2023-04-16T11:13:23;22.40;;;16.37;;
15340;SDS011;7770;52.158;5.372;2023-04-16T11:16:13;16.83;;;14.57;;
15340;SDS011;7770;52.158;5.372;2023-04-16T11:19:01;19.07;;;15.30;;
15340;SDS011;7770;52.158;5.372;2023-04-16T11:21:47;23.23;;;16.40;;
15340;SDS011;7770;52.158;5.372;2023-04-16T11:24:35;20.93;;;15.93;;
15340;SDS011;7770;52.158;5.372;2023-04-16T11:40:20;29.47;;;17.27;;
15340;SDS011;7770;52.158;5.372;2023-04-16T11:43:13;24.23;;;16.77;;
15340;SDS011;7770;52.158;5.372;2023-04-16T11:46:04;22.93;;;16.43;;
15340;SDS011;7770;52.158;5.372;2023-04-16T11:48:52;24.30;;;17.37;;
15340;SDS011;7770;52.158;5.372;2023-04-16T11:51:43;21.70;;;16.20;;
15340;SDS011;7770;52.158;5.372;2023-04-16T11:54:31;22.27;;;15.67;;
15340;SDS011;7770;52.158;5.372;2023-04-16T11:57:26;18.47;;;14.97;;
15340;SDS011;7770;52.158;5.372;2023-04-16T12:00:16;21.90;;;15.30;;
15340;SDS011;7770;52.158;5.372;2023-04-16T12:03:02;22.77;;;15.37;;
15340;SDS011;7770;52.158;5.372;2023-04-16T12:05:48;20.57;;;14.77;;
15340;SDS011;7770;52.158;5.372;2023-04-16T12:08:34;20.20;;;14.70;;
15340;SDS011;7770;52.158;5.372;2023-04-16T12:11:20;21.07;;;14.33;;
15340;SDS011;7770;52.158;5.372;2023-04-16T12:14:22;17.07;;;13.53;;
15340;SDS011;7770;52.158;5.372;2023-04-16T12:17:20;15.80;;;12.40;;
15340;SDS011;7770;52.158;5.372;2023-04-16T12:20:08;17.70;;;12.67;;
15340;SDS011;7770;52.158;5.372;2023-04-16T12:22:55;17.93;;;13.40;;
15340;SDS011;7770;52.158;5.372;2023-04-16T12:25:45;15.03;;;12.63;;
15340;SDS011;7770;52.158;5.372;2023-04-16T12:28:34;16.30;;;13.47;;
15340;SDS011;7770;52.158;5.372;2023-04-16T12:31:38;15.63;;;12.43;;
15340;SDS011;7770;52.158;5.372;2023-04-16T12:34:24;19.00;;;12.97;;
15340;SDS011;7770;52.158;5.372;2023-04-16T12:37:10;16.37;;;13.10;;
15340;SDS011;7770;52.158;5.372;2023-04-16T14:32:27;19.03;;;13.83;;
15340;SDS011;7770;52.158;5.372;2023-04-16T14:35:13;21.10;;;14.00;;
15340;SDS011;7770;52.158;5.372;2023-04-16T14:38:00;20.53;;;14.13;;
15340;SDS011;7770;52.158;5.372;2023-04-16T14:40:47;22.50;;;14.17;;
15340;SDS011;7770;52.158;5.372;2023-04-16T14:46:09;20.23;;;14.57;;
15340;SDS011;7770;52.158;5.372;2023-04-16T14:48:55;20.90;;;14.53;;
15340;SDS011;7770;52.158;5.372;2023-04-16T14:51:42;19.70;;;14.60;;
15340;SDS011;7770;52.158;5.372;2023-04-16T14:54:31;19.60;;;15.17;;
15340;SDS011;7770;52.158;5.372;2023-04-16T15:05:04;22.00;;;17.90;;
15340;SDS011;7770;52.158;5.372;2023-04-16T15:07:54;19.53;;;15.07;;
15340;SDS011;7770;52.158;5.372;2023-04-16T15:10:40;20.80;;;16.53;;
15340;SDS011;7770;52.158;5.372;2023-04-16T15:13:27;21.87;;;16.03;;
15340;SDS011;7770;52.158;5.372;2023-04-16T15:16:18;20.70;;;15.67;;
15340;SDS011;7770;52.158;5.372;2023-04-16T15:19:04;18.57;;;15.50;;
15340;SDS011;7770;52.158;5.372;2023-04-16T15:21:50;19.40;;;15.97;;
15340;SDS011;7770;52.158;5.372;2023-04-16T15:24:36;18.67;;;15.87;;
15340;SDS011;7770;52.158;5.372;2023-04-16T15:27:22;22.27;;;16.23;;
15340;SDS011;7770;52.158;5.372;2023-04-16T15:30:08;22.77;;;16.63;;
15340;SDS011;7770;52.158;5.372;2023-04-16T15:32:54;20.67;;;16.03;;
15340;SDS011;7770;52.158;5.372;2023-04-16T15:35:40;18.73;;;16.70;;
15340;SDS011;7770;52.158;5.372;2023-04-16T15:38:27;20.47;;;16.20;;
15340;SDS011;7770;52.158;5.372;2023-04-16T15:41:14;25.13;;;17.97;;
15340;SDS011;7770;52.158;5.372;2023-04-16T15:44:00;24.27;;;17.57;;
15340;SDS011;7770;52.158;5.372;2023-04-16T15:46:47;23.47;;;17.40;;
15340;SDS011;7770;52.158;5.372;2023-04-16T15:49:33;24.37;;;17.40;;
15340;SDS011;7770;52.158;5.372;2023-04-16T15:52:19;22.33;;;16.53;;
15340;SDS011;7770;52.158;5.372;2023-04-16T15:55:06;23.90;;;17.23;;
15340;SDS011;7770;52.158;5.372;2023-04-16T15:57:52;23.53;;;17.20;;
15340;SDS011;7770;52.158;5.372;2023-04-16T16:00:38;24.07;;;17.47;;
15340;SDS011;7770;52.158;5.372;2023-04-16T16:03:24;24.63;;;17.67;;
15340;SDS011;7770;52.158;5.372;2023-04-16T16:06:10;25.77;;;17.97;;
15340;SDS011;7770;52.158;5.372;2023-04-16T16:08:57;23.77;;;18.17;;
15340;SDS011;7770;52.158;5.372;2023-04-16T16:11:43;25.27;;;17.50;;
15340;SDS011;7770;52.158;5.372;2023-04-16T16:14:29;21.07;;;16.73;;
15340;SDS011;7770;52.158;5.372;2023-04-16T16:17:17;22.60;;;18.17;;
15340;SDS011;7770;52.158;5.372;2023-04-16T16:20:04;40.30;;;26.97;;
15340;SDS011;7770;52.158;5.372;2023-04-16T16:22:54;30.67;;;20.80;;
15340;SDS011;7770;52.158;5.372;2023-04-16T16:25:40;25.87;;;18.87;;
15340;SDS011;7770;52.158;5.372;2023-04-16T16:28:26;25.23;;;18.53;;
15340;SDS011;7770;52.158;5.372;2023-04-16T16:31:12;24.57;;;18.60;;
15340;SDS011;7770;52.158;5.372;2023-04-16T16:33:58;24.70;;;19.57;;
15340;SDS011;7770;52.158;5.372;2023-04-16T16:36:45;27.97;;;20.07;;
15340;SDS011;7770;52.158;5.372;2023-04-16T16:39:31;26.00;;;19.87;;
15340;SDS011;7770;52.158;5.372;2023-04-16T16:42:18;25.03;;;19.07;;
15340;SDS011;7770;52.158;5.372;2023-04-16T16:45:04;27.17;;;19.87;;
15340;SDS011;7770;52.158;5.372;2023-04-16T16:47:50;25.07;;;19.60;;
15340;SDS011;7770;52.158;5.372;2023-04-16T16:50:36;30.07;;;20.10;;
15340;SDS011;7770;52.158;5.372;2023-04-16T16:53:22;25.87;;;18.40;;
15340;SDS011;7770;52.158;5.372;2023-04-16T16:56:08;27.87;;;19.60;;
15340;SDS011;7770;52.158;5.372;2023-04-16T16:58:54;28.37;;;19.43;;
15340;SDS011;7770;52.158;5.372;2023-04-16T17:01:41;24.23;;;18.67;;
15340;SDS011;7770;52.158;5.372;2023-04-16T17:04:27;33.17;;;20.20;;
15340;SDS011;7770;52.158;5.372;2023-04-16T17:07:13;28.37;;;19.10;;
15340;SDS011;7770;52.158;5.372;2023-04-16T17:09:59;30.13;;;19.53;;
15340;SDS011;7770;52.158;5.372;2023-04-16T17:12:48;27.77;;;18.80;;
15340;SDS011;7770;52.158;5.372;2023-04-16T17:15:35;30.90;;;19.73;;
15340;SDS011;7770;52.158;5.372;2023-04-16T17:18:21;25.77;;;19.40;;
15340;SDS011;7770;52.158;5.372;2023-04-16T17:21:07;26.80;;;20.50;;
15340;SDS011;7770;52.158;5.372;2023-04-16T17:23:53;27.77;;;19.97;;
15340;SDS011;7770;52.158;5.372;2023-04-16T17:26:39;27.17;;;20.13;;
15340;SDS011;7770;52.158;5.372;2023-04-16T17:29:25;24.47;;;19.80;;
15340;SDS011;7770;52.158;5.372;2023-04-16T17:32:11;25.70;;;20.07;;
15340;SDS011;7770;52.158;5.372;2023-04-16T17:34:58;26.67;;;20.17;;
15340;SDS011;7770;52.158;5.372;2023-04-16T17:37:45;27.57;;;20.03;;
15340;SDS011;7770;52.158;5.372;2023-04-16T17:40:31;23.17;;;20.57;;
15340;SDS011;7770;52.158;5.372;2023-04-16T17:43:17;27.93;;;20.27;;
15340;SDS011;7770;52.158;5.372;2023-04-16T17:46:03;27.23;;;19.67;;
15340;SDS011;7770;52.158;5.372;2023-04-16T17:48:49;30.77;;;20.93;;
15340;SDS011;7770;52.158;5.372;2023-04-16T17:51:35;31.93;;;21.13;;
15340;SDS011;7770;52.158;5.372;2023-04-16T17:54:21;30.63;;;21.20;;
15340;SDS011;7770;52.158;5.372;2023-04-16T17:57:08;25.67;;;20.67;;
15340;SDS011;7770;52.158;5.372;2023-04-16T17:59:54;31.87;;;21.63;;
15340;SDS011;7770;52.158;5.372;2023-04-16T18:02:41;26.80;;;22.00;;
15340;SDS011;7770;52.158;5.372;2023-04-16T18:05:27;29.17;;;23.00;;
15340;SDS011;7770;52.158;5.372;2023-04-16T18:08:14;31.23;;;21.30;;
15340;SDS011;7770;52.158;5.372;2023-04-16T18:11:04;32.60;;;23.30;;
15340;SDS011;7770;52.158;5.372;2023-04-16T18:13:52;30.13;;;22.77;;
15340;SDS011;7770;52.158;5.372;2023-04-16T18:16:38;33.80;;;23.90;;
15340;SDS011;7770;52.158;5.372;2023-04-16T18:19:24;33.67;;;24.50;;
15340;SDS011;7770;52.158;5.372;2023-04-16T18:22:10;36.33;;;23.33;;
15340;SDS011;7770;52.158;5.372;2023-04-16T18:24:57;34.10;;;24.13;;
15340;SDS011;7770;52.158;5.372;2023-04-16T18:27:43;35.03;;;23.53;;
15340;SDS011;7770;52.158;5.372;2023-04-16T18:30:29;30.93;;;24.00;;
15340;SDS011;7770;52.158;5.372;2023-04-16T18:33:15;35.23;;;24.87;;
15340;SDS011;7770;52.158;5.372;2023-04-16T18:36:01;35.90;;;24.90;;
15340;SDS011;7770;52.158;5.372;2023-04-16T18:38:48;35.00;;;25.57;;
15340;SDS011;7770;52.158;5.372;2023-04-16T18:41:34;32.87;;;25.67;;
15340;SDS011;7770;52.158;5.372;2023-04-16T18:44:20;36.13;;;26.40;;
15340;SDS011;7770;52.158;5.372;2023-04-16T18:47:07;40.00;;;26.77;;